Solea — DBFI — position and weather

sailwx.info

Track history (hours):
 
Tides and Currents Weather Stations Pressure Air Temp Water Temp Dewpoint Dewpoint Depression Visibility Wind Speed Wind Dir Waves Ship Positions

Oceanographic research ship Solea (Germany)

Detailed information on ship capabilities available from University of Delaware's Ocean Information Center.

Last reported at 2020-Mar-29 13:31 UTC. Time now 2020-Mar-29 14:02 UTC.
Position N 54°08' E 007°57'.

Length 72 m; draft 5.2 m.

Type: Law enforcement. MMSI: 218692000.

Date/timePositionNaut miles runAvg speedWind from/ knotsBaromVisibWave heightAir tempDewpointWater temp
2020-Mar-29 13:31N 54°08' E 007°57'4 8.7
2020-Mar-29 13:00N 54°12' E 007°59'2 3.7
2020-Mar-29 12:30N 54°10' E 007°58'2 2.3
2020-Mar-29 11:30N 54°12' E 008°01'3 1.3
2020-Mar-29 09:00N 54°09' E 007°58'3 0.5
2020-Mar-29 03:30N 54°12' E 007°58'2 2.3
2020-Mar-29 02:30N 54°10' E 007°58'1 0.4
2020-Mar-29 00:01N 54°09' E 007°59'4 7.5
2020-Mar-28 23:30N 54°13' E 007°58'3 1.3
2020-Mar-28 21:00N 54°10' E 007°58'1 0.6
2020-Mar-28 19:31N 54°10' E 007°58'1 0.2
2020-Mar-28 15:31N 54°10' E 007°59'2 0.5
2020-Mar-28 12:30N 54°11' E 007°58'1 2.1
2020-Mar-28 12:00N 54°10' E 007°59'0 0.6
2020-Mar-28 11:31N 54°10' E 007°58'8 0.3
2020-Mar-27 11:33N 54°13' E 008°11'10 9.6
2020-Mar-27 10:30N 54°03' E 008°15'5 9.7
2020-Mar-27 10:00N 53°60' E 008°21'15 7.4
2020-Mar-27 07:59N 53°52' E 008°43'0 0.0
2020-Mar-27 05:59N 53°52' E 008°43'0 0.0
2020-Mar-27 03:29N 53°52' E 008°43'0 0.0
2020-Mar-26 14:50N 53°52' E 008°43'0 0.0
2020-Mar-26 13:29N 53°52' E 008°43'0 0.0
2020-Mar-26 10:59N 53°52' E 008°43'0 0.0
2020-Mar-26 09:59N 53°52' E 008°43'0 0.0
2020-Mar-26 09:29N 53°52' E 008°43'0 0.0
2020-Mar-26 07:59N 53°52' E 008°43'0 0.0
2020-Mar-26 07:29N 53°52' E 008°43'0 0.0
2020-Mar-26 06:59N 53°52' E 008°43'0 0.0
2020-Mar-26 06:29N 53°52' E 008°43'0 0.0
2020-Mar-26 05:59N 53°52' E 008°43'0 0.0
2020-Mar-26 05:29N 53°52' E 008°43'0 0.0
2020-Mar-26 04:29N 53°52' E 008°43'0 0.0
2020-Mar-26 03:29N 53°52' E 008°43'0 0.0
2020-Mar-25 22:59N 53°52' E 008°43'0 0.0
2020-Mar-25 20:29N 53°52' E 008°43'0 0.0
2020-Mar-25 15:29N 53°52' E 008°43'0 0.0
2020-Mar-25 13:29N 53°52' E 008°43'0 0.0
2020-Mar-25 12:59N 53°52' E 008°43'0 0.0
2020-Mar-25 10:29N 53°52' E 008°43'0 0.0
2020-Mar-25 08:29N 53°52' E 008°43'0 0.0
2020-Mar-25 07:59N 53°52' E 008°43'0 0.0
2020-Mar-25 05:29N 53°52' E 008°43'0 0.0
2020-Mar-25 01:29N 53°52' E 008°43'0 0.0
2020-Mar-25 00:59N 53°52' E 008°43'0 0.0
2020-Mar-25 00:29N 53°52' E 008°43'0 0.0
2020-Mar-24 22:59N 53°52' E 008°43'0 0.0
2020-Mar-24 21:29N 53°52' E 008°43'0 0.0
2020-Mar-24 19:59N 53°52' E 008°43'0 0.0
2020-Mar-24 19:29N 53°52' E 008°43'0 0.0
2020-Mar-24 18:59N 53°52' E 008°43'0 0.0
2020-Mar-24 17:29N 53°52' E 008°43'0 0.0
2020-Mar-24 16:59N 53°52' E 008°43'0 0.0
2020-Mar-24 15:29N 53°52' E 008°43'0 0.0
2020-Mar-24 13:59N 53°52' E 008°43'0 0.0
2020-Mar-24 13:29N 53°52' E 008°43'0 0.0
2020-Mar-24 12:59N 53°52' E 008°43'0 0.0
2020-Mar-24 08:30N 53°52' E 008°43'0 0.0
2020-Mar-24 07:59N 53°52' E 008°43'0 0.0
2020-Mar-24 07:29N 53°52' E 008°43'0 0.0
2020-Mar-24 05:29N 53°52' E 008°43'0 0.0
2020-Mar-24 04:29N 53°52' E 008°43'0 0.0
2020-Mar-24 01:29N 53°52' E 008°43'0 0.0
2020-Mar-24 00:29N 53°52' E 008°43'0 0.0
2020-Mar-23 23:29N 53°52' E 008°43'0 0.0
2020-Mar-23 20:59N 53°52' E 008°43'0 0.0
2020-Mar-23 19:29N 53°52' E 008°43'0 0.0
2020-Mar-23 13:29N 53°52' E 008°43'0 0.0
2020-Mar-23 13:00N 53°52' E 008°43'0 0.0
2020-Mar-23 11:29N 53°52' E 008°43'0 0.0
2020-Mar-23 10:59N 53°52' E 008°43'0 0.0
2020-Mar-23 09:29N 53°52' E 008°43'0 0.0
2020-Mar-23 07:59N 53°52' E 008°43'0 0.0
2020-Mar-23 05:29N 53°52' E 008°43'0 0.0
2020-Mar-23 04:29N 53°52' E 008°43'0 0.0
2020-Mar-23 02:29N 53°52' E 008°43'0 0.0
2020-Mar-23 01:59N 53°52' E 008°43'0 0.0
2020-Mar-23 01:29N 53°52' E 008°43'0 0.0
2020-Mar-22 23:59N 53°52' E 008°43'0 0.0
2020-Mar-22 22:29N 53°52' E 008°43'0 0.0
2020-Mar-22 21:59N 53°52' E 008°43'0 0.0
2020-Mar-22 19:59N 53°52' E 008°43'0 0.0
2020-Mar-22 19:29N 53°52' E 008°43'0 0.0
2020-Mar-22 18:29N 53°52' E 008°43'0 0.0
2020-Mar-22 17:30N 53°52' E 008°43'0 0.0
2020-Mar-22 15:59N 53°52' E 008°43'0 0.0
2020-Mar-22 11:59N 53°52' E 008°43'0 0.0
2020-Mar-22 08:29N 53°52' E 008°43'0 0.0
2020-Mar-22 05:59N 53°52' E 008°43'0 0.0
2020-Mar-22 04:59N 53°52' E 008°43'0 0.0
2020-Mar-22 03:29N 53°52' E 008°43'0 0.0
2020-Mar-22 02:29N 53°52' E 008°43'0 0.0
2020-Mar-21 23:29N 53°52' E 008°43'0 0.0
2020-Mar-21 22:29N 53°52' E 008°43'0 0.0
2020-Mar-21 20:29N 53°52' E 008°43'0 0.0
2020-Mar-21 19:29N 53°52' E 008°43'0 0.0
2020-Mar-21 17:59N 53°52' E 008°43'0 0.0
2020-Mar-21 17:29N 53°52' E 008°43'0 0.0
2020-Mar-21 16:29N 53°52' E 008°43'0 0.0
2020-Mar-21 01:44N 53°52' E 008°43'0 0.0
2020-Mar-21 01:29N 53°52' E 008°43'0 0.0
2020-Mar-21 00:56N 53°52' E 008°43'0 0.0
2020-Mar-20 23:47N 53°52' E 008°43'0 0.0
2020-Mar-20 22:50N 53°52' E 008°43'0 0.0
2020-Mar-20 20:44N 53°52' E 008°43'0 0.0
2020-Mar-20 20:26N 53°52' E 008°43'0 0.0
2020-Mar-20 18:35N 53°52' E 008°43'0 0.0
2020-Mar-20 16:32N 53°52' E 008°43'0 0.0
2020-Mar-20 15:38N 53°52' E 008°43'0 0.0
2020-Mar-20 13:41N 53°52' E 008°43'0 0.0
2020-Mar-20 12:56N 53°52' E 008°43'0 0.0
2020-Mar-20 11:00N 53°52' E 008°43'32 6.4
2020-Mar-20 06:01N 54°11' E 007°58'0 0.8
2020-Mar-20 05:30N 54°11' E 007°58'0 0.2
2020-Mar-20 03:01N 54°10' E 007°58'0 0.2
2020-Mar-20 00:01N 54°10' E 007°57'1 0.6
2020-Mar-19 23:01N 54°11' E 007°58'0 0.2
2020-Mar-19 22:31N 54°11' E 007°58'1 0.3
2020-Mar-19 20:01N 54°11' E 007°59'0 0.4
2020-Mar-19 19:31N 54°11' E 007°58'1 0.5
2020-Mar-19 18:31N 54°11' E 007°58'4 2.0
2020-Mar-19 16:31N 54°09' E 007°52'  
Track history (hours):
 
Tides and Currents Weather Stations Pressure Air Temp Water Temp Dewpoint Dewpoint Depression Visibility Wind Speed Wind Dir Waves Ship Positions

Oceanographic research ship Solea (Germany)

Detailed information on ship capabilities available from University of Delaware's Ocean Information Center.

Last reported at 2020-Mar-29 13:31 UTC. Time now 2020-Mar-29 14:02 UTC.
Position N 54°08' E 007°57'.

Length 72 m; draft 5.2 m.

Type: Law enforcement. MMSI: 218692000.

Date/timePositionNaut miles runAvg speedWind from/ knotsBaromVisibWave heightAir tempDewpointWater temp
2020-Mar-29 13:31N 54°08' E 007°57'4 8.7
2020-Mar-29 13:00N 54°12' E 007°59'2 3.7
2020-Mar-29 12:30N 54°10' E 007°58'2 2.3
2020-Mar-29 11:30N 54°12' E 008°01'3 1.3
2020-Mar-29 09:00N 54°09' E 007°58'3 0.5
2020-Mar-29 03:30N 54°12' E 007°58'2 2.3
2020-Mar-29 02:30N 54°10' E 007°58'1 0.4
2020-Mar-29 00:01N 54°09' E 007°59'4 7.5
2020-Mar-28 23:30N 54°13' E 007°58'3 1.3
2020-Mar-28 21:00N 54°10' E 007°58'1 0.6
2020-Mar-28 19:31N 54°10' E 007°58'1 0.2
2020-Mar-28 15:31N 54°10' E 007°59'2 0.5
2020-Mar-28 12:30N 54°11' E 007°58'1 2.1
2020-Mar-28 12:00N 54°10' E 007°59'0 0.6
2020-Mar-28 11:31N 54°10' E 007°58'8 0.3
2020-Mar-27 11:33N 54°13' E 008°11'10 9.6
2020-Mar-27 10:30N 54°03' E 008°15'5 9.7
2020-Mar-27 10:00N 53°60' E 008°21'15 7.4
2020-Mar-27 07:59N 53°52' E 008°43'0 0.0
2020-Mar-27 05:59N 53°52' E 008°43'0 0.0
2020-Mar-27 03:29N 53°52' E 008°43'0 0.0
2020-Mar-26 14:50N 53°52' E 008°43'0 0.0
2020-Mar-26 13:29N 53°52' E 008°43'0 0.0
2020-Mar-26 10:59N 53°52' E 008°43'0 0.0
2020-Mar-26 09:59N 53°52' E 008°43'0 0.0
2020-Mar-26 09:29N 53°52' E 008°43'0 0.0
2020-Mar-26 07:59N 53°52' E 008°43'0 0.0
2020-Mar-26 07:29N 53°52' E 008°43'0 0.0
2020-Mar-26 06:59N 53°52' E 008°43'0 0.0
2020-Mar-26 06:29N 53°52' E 008°43'0 0.0
2020-Mar-26 05:59N 53°52' E 008°43'0 0.0
2020-Mar-26 05:29N 53°52' E 008°43'0 0.0
2020-Mar-26 04:29N 53°52' E 008°43'0 0.0
2020-Mar-26 03:29N 53°52' E 008°43'0 0.0
2020-Mar-25 22:59N 53°52' E 008°43'0 0.0
2020-Mar-25 20:29N 53°52' E 008°43'0 0.0
2020-Mar-25 15:29N 53°52' E 008°43'0 0.0
2020-Mar-25 13:29N 53°52' E 008°43'0 0.0
2020-Mar-25 12:59N 53°52' E 008°43'0 0.0
2020-Mar-25 10:29N 53°52' E 008°43'0 0.0
2020-Mar-25 08:29N 53°52' E 008°43'0 0.0
2020-Mar-25 07:59N 53°52' E 008°43'0 0.0
2020-Mar-25 05:29N 53°52' E 008°43'0 0.0
2020-Mar-25 01:29N 53°52' E 008°43'0 0.0
2020-Mar-25 00:59N 53°52' E 008°43'0 0.0
2020-Mar-25 00:29N 53°52' E 008°43'0 0.0
2020-Mar-24 22:59N 53°52' E 008°43'0 0.0
2020-Mar-24 21:29N 53°52' E 008°43'0 0.0
2020-Mar-24 19:59N 53°52' E 008°43'0 0.0
2020-Mar-24 19:29N 53°52' E 008°43'0 0.0
2020-Mar-24 18:59N 53°52' E 008°43'0 0.0
2020-Mar-24 17:29N 53°52' E 008°43'0 0.0
2020-Mar-24 16:59N 53°52' E 008°43'0 0.0
2020-Mar-24 15:29N 53°52' E 008°43'0 0.0
2020-Mar-24 13:59N 53°52' E 008°43'0 0.0
2020-Mar-24 13:29N 53°52' E 008°43'0 0.0
2020-Mar-24 12:59N 53°52' E 008°43'0 0.0
2020-Mar-24 08:30N 53°52' E 008°43'0 0.0
2020-Mar-24 07:59N 53°52' E 008°43'0 0.0
2020-Mar-24 07:29N 53°52' E 008°43'0 0.0
2020-Mar-24 05:29N 53°52' E 008°43'0 0.0
2020-Mar-24 04:29N 53°52' E 008°43'0 0.0
2020-Mar-24 01:29N 53°52' E 008°43'0 0.0
2020-Mar-24 00:29N 53°52' E 008°43'0 0.0
2020-Mar-23 23:29N 53°52' E 008°43'0 0.0
2020-Mar-23 20:59N 53°52' E 008°43'0 0.0
2020-Mar-23 19:29N 53°52' E 008°43'0 0.0
2020-Mar-23 13:29N 53°52' E 008°43'0 0.0
2020-Mar-23 13:00N 53°52' E 008°43'0 0.0
2020-Mar-23 11:29N 53°52' E 008°43'0 0.0
2020-Mar-23 10:59N 53°52' E 008°43'0 0.0
2020-Mar-23 09:29N 53°52' E 008°43'0 0.0
2020-Mar-23 07:59N 53°52' E 008°43'0 0.0
2020-Mar-23 05:29N 53°52' E 008°43'0 0.0
2020-Mar-23 04:29N 53°52' E 008°43'0 0.0
2020-Mar-23 02:29N 53°52' E 008°43'0 0.0
2020-Mar-23 01:59N 53°52' E 008°43'0 0.0
2020-Mar-23 01:29N 53°52' E 008°43'0 0.0
2020-Mar-22 23:59N 53°52' E 008°43'0 0.0
2020-Mar-22 22:29N 53°52' E 008°43'0 0.0
2020-Mar-22 21:59N 53°52' E 008°43'0 0.0
2020-Mar-22 19:59N 53°52' E 008°43'0 0.0
2020-Mar-22 19:29N 53°52' E 008°43'0 0.0
2020-Mar-22 18:29N 53°52' E 008°43'0 0.0
2020-Mar-22 17:30N 53°52' E 008°43'0 0.0
2020-Mar-22 15:59N 53°52' E 008°43'0 0.0
2020-Mar-22 11:59N 53°52' E 008°43'0 0.0
2020-Mar-22 08:29N 53°52' E 008°43'0 0.0
2020-Mar-22 05:59N 53°52' E 008°43'0 0.0
2020-Mar-22 04:59N 53°52' E 008°43'0 0.0
2020-Mar-22 03:29N 53°52' E 008°43'0 0.0
2020-Mar-22 02:29N 53°52' E 008°43'0 0.0
2020-Mar-21 23:29N 53°52' E 008°43'0 0.0
2020-Mar-21 22:29N 53°52' E 008°43'0 0.0
2020-Mar-21 20:29N 53°52' E 008°43'0 0.0
2020-Mar-21 19:29N 53°52' E 008°43'0 0.0
2020-Mar-21 17:59N 53°52' E 008°43'0 0.0
2020-Mar-21 17:29N 53°52' E 008°43'0 0.0
2020-Mar-21 16:29N 53°52' E 008°43'0 0.0
2020-Mar-21 01:44N 53°52' E 008°43'0 0.0
2020-Mar-21 01:29N 53°52' E 008°43'0 0.0
2020-Mar-21 00:56N 53°52' E 008°43'0 0.0
2020-Mar-20 23:47N 53°52' E 008°43'0 0.0
2020-Mar-20 22:50N 53°52' E 008°43'0 0.0
2020-Mar-20 20:44N 53°52' E 008°43'0 0.0
2020-Mar-20 20:26N 53°52' E 008°43'0 0.0
2020-Mar-20 18:35N 53°52' E 008°43'0 0.0
2020-Mar-20 16:32N 53°52' E 008°43'0 0.0
2020-Mar-20 15:38N 53°52' E 008°43'0 0.0
2020-Mar-20 13:41N 53°52' E 008°43'0 0.0
2020-Mar-20 12:56N 53°52' E 008°43'0 0.0
2020-Mar-20 11:00N 53°52' E 008°43'32 6.4
2020-Mar-20 06:01N 54°11' E 007°58'0 0.8
2020-Mar-20 05:30N 54°11' E 007°58'0 0.2
2020-Mar-20 03:01N 54°10' E 007°58'0 0.2
2020-Mar-20 00:01N 54°10' E 007°57'1 0.6
2020-Mar-19 23:01N 54°11' E 007°58'0 0.2
2020-Mar-19 22:31N 54°11' E 007°58'1 0.3
2020-Mar-19 20:01N 54°11' E 007°59'0 0.4
2020-Mar-19 19:31N 54°11' E 007°58'1 0.5
2020-Mar-19 18:31N 54°11' E 007°58'4 2.0
2020-Mar-19 16:31N 54°09' E 007°52'  

Dump ship's entire track history